createdAt,value
2018-04-15T00:00:36.641Z,56.73
2018-04-15T00:03:05.804Z,56.84
2018-04-15T00:05:35.317Z,56.94
2018-04-15T00:08:04.805Z,57.10
2018-04-15T00:10:34.718Z,57.25
2018-04-15T00:13:04.622Z,57.37
2018-04-15T00:15:34.132Z,57.61
2018-04-15T00:18:04.026Z,57.53
2018-04-15T00:20:33.554Z,57.95
2018-04-15T00:23:03.477Z,58.06
2018-04-15T00:25:33.365Z,57.73
2018-04-15T00:28:02.876Z,57.93
2018-04-15T00:30:32.392Z,57.91
2018-04-15T00:33:01.897Z,58.17
2018-04-15T00:35:31.828Z,58.30
2018-04-15T00:38:01.726Z,58.34
2018-04-15T00:40:31.634Z,58.44
2018-04-15T00:43:01.147Z,58.58
2018-04-15T00:45:30.646Z,58.48
2018-04-15T00:48:00.159Z,58.53
2018-04-15T00:50:29.660Z,58.37
2018-04-15T00:52:59.170Z,58.67
2018-04-15T00:55:28.678Z,58.72
2018-04-15T00:57:58.581Z,58.95
2018-04-15T01:00:28.115Z,58.88
2018-04-15T01:02:58.011Z,58.91
2018-04-15T01:05:27.908Z,58.98
2018-04-15T01:07:57.432Z,58.99
2018-04-15T01:10:27.326Z,59.03
2018-04-15T01:12:56.838Z,59.26
2018-04-15T01:15:26.372Z,59.37
2018-04-15T01:17:56.274Z,59.43
2018-04-15T01:20:26.194Z,59.40
2018-04-15T01:22:56.088Z,59.67
2018-04-15T01:25:25.596Z,59.58
2018-04-15T01:27:54.817Z,59.69
2018-04-15T01:30:24.708Z,59.78
2018-04-15T01:32:54.206Z,59.94
2018-04-15T01:35:23.714Z,60.09
2018-04-15T01:37:53.214Z,60.29
2018-04-15T01:40:22.715Z,60.47
2018-04-15T01:42:52.222Z,60.60
2018-04-15T01:45:22.152Z,60.61
2018-04-15T01:47:51.413Z,60.55
2018-04-15T01:50:20.901Z,60.45
2018-04-15T01:52:50.430Z,60.55
2018-04-15T01:55:19.934Z,60.59
2018-04-15T01:57:49.423Z,60.41
2018-04-15T02:00:18.932Z,60.30
2018-04-15T02:02:48.435Z,60.18
2018-04-15T02:05:17.933Z,60.04
2018-04-15T02:07:47.433Z,60.20
2018-04-15T02:10:16.935Z,60.07
2018-04-15T02:12:46.842Z,60.12
2018-04-15T02:15:16.739Z,60.51
2018-04-15T02:17:46.259Z,60.55
2018-04-15T02:20:16.139Z,60.75
2018-04-15T02:22:45.635Z,61.12
2018-04-15T02:25:15.122Z,61.32
2018-04-15T02:27:44.615Z,61.27
2018-04-15T02:30:14.107Z,61.66
2018-04-15T02:32:43.610Z,61.76
2018-04-15T02:35:13.110Z,62.24
2018-04-15T02:37:43.013Z,62.31
2018-04-15T02:40:12.901Z,62.53
2018-04-15T02:42:42.161Z,62.80
2018-04-15T02:45:11.672Z,62.69
2018-04-15T02:47:41.743Z,62.19
2018-04-15T02:50:11.259Z,62.01
2018-04-15T02:52:41.163Z,62.01
2018-04-15T02:55:10.657Z,62.14
2018-04-15T02:57:40.153Z,62.00
2018-04-15T03:00:09.658Z,62.08
2018-04-15T03:02:39.191Z,62.32
2018-04-15T03:05:09.101Z,62.21
2018-04-15T03:07:38.783Z,62.24
2018-04-15T03:10:08.283Z,62.55
2018-04-15T03:12:37.776Z,62.62
2018-04-15T03:15:07.274Z,62.68
2018-04-15T03:17:36.799Z,62.95
2018-04-15T03:20:06.285Z,63.23
2018-04-15T03:22:35.771Z,62.93
2018-04-15T03:25:05.294Z,63.00
2018-04-15T03:27:34.789Z,63.03
2018-04-15T03:30:04.043Z,63.22
2018-04-15T03:32:33.542Z,63.38
2018-04-15T03:35:03.036Z,63.59
2018-04-15T03:37:32.528Z,63.81
2018-04-15T03:40:02.061Z,63.86
2018-04-15T03:42:31.554Z,64.01
2018-04-15T03:45:01.122Z,64.13
2018-04-15T03:47:30.699Z,63.94
2018-04-15T03:50:00.196Z,64.02
2018-04-15T03:52:29.697Z,63.98
2018-04-15T03:54:59.223Z,63.89
2018-04-15T03:57:29.132Z,64.03
2018-04-15T03:59:58.390Z,64.25
2018-04-15T04:02:27.884Z,64.77
2018-04-15T04:04:57.383Z,64.83
2018-04-15T04:07:26.880Z,65.08
2018-04-15T04:09:56.365Z,65.29
2018-04-15T04:12:26.264Z,65.29
2018-04-15T04:14:55.754Z,65.44
2018-04-15T04:17:42.086Z,65.22
2018-04-15T04:20:28.721Z,65.18
2018-04-15T04:23:15.584Z,65.22
2018-04-15T04:26:06.927Z,65.23
2018-04-15T04:28:36.845Z,65.48
2018-04-15T04:31:08.055Z,65.76
2018-04-15T04:33:37.571Z,65.80
2018-04-15T04:36:07.078Z,65.99
2018-04-15T04:41:37.123Z,66.25
2018-04-15T04:44:06.619Z,65.92
2018-04-15T04:46:36.119Z,65.69
2018-04-15T04:49:05.826Z,66.25
2018-04-15T04:51:35.322Z,66.55
2018-04-15T04:54:04.813Z,66.57
2018-04-15T04:56:34.331Z,66.53
2018-04-15T04:59:03.819Z,66.50
2018-04-15T05:01:33.365Z,66.30
2018-04-15T05:04:02.861Z,66.34
2018-04-15T05:06:32.358Z,66.16
2018-04-15T05:09:01.841Z,66.11
2018-04-15T05:11:31.349Z,66.13
2018-04-15T05:14:00.847Z,65.67
2018-04-15T05:16:30.351Z,65.38
2018-04-15T05:18:59.859Z,64.97
2018-04-15T05:21:29.367Z,64.81
2018-04-15T05:23:58.863Z,64.88
2018-04-15T05:26:28.384Z,64.67
2018-04-15T05:28:57.884Z,64.05
2018-04-15T05:31:27.375Z,63.37
2018-04-15T05:33:56.867Z,63.43
2018-04-15T05:36:26.137Z,63.21
2018-04-15T05:38:55.652Z,63.24
2018-04-15T05:41:25.549Z,63.33
2018-04-15T05:43:55.080Z,63.22
2018-04-15T05:46:24.973Z,63.28
2018-04-15T05:48:54.872Z,63.40
2018-04-15T05:51:24.423Z,62.92
2018-04-15T05:53:54.357Z,62.23
2018-04-15T05:56:24.457Z,62.04
2018-04-15T05:58:53.961Z,60.89
2018-04-15T06:01:23.886Z,60.91
2018-04-15T06:03:53.921Z,61.06
2018-04-15T06:06:23.435Z,61.07
2018-04-15T06:08:52.943Z,61.07
2018-04-15T06:11:22.483Z,61.13
2018-04-15T06:13:51.987Z,60.58
2018-04-15T06:16:21.501Z,59.89
2018-04-15T06:18:51.039Z,59.99
2018-04-15T06:21:20.723Z,59.64
2018-04-15T06:23:50.623Z,59.19
2018-04-15T06:26:19.997Z,59.08
2018-04-15T06:28:49.497Z,58.20
2018-04-15T06:31:19.057Z,58.18
2018-04-15T06:33:48.947Z,58.27
2018-04-15T06:36:18.449Z,58.41
2018-04-15T06:38:47.950Z,58.18
2018-04-15T06:41:17.503Z,58.00
2018-04-15T06:43:47.408Z,57.85
2018-04-15T06:46:17.311Z,57.36
2018-04-15T06:48:47.234Z,56.99
2018-04-15T06:51:16.895Z,56.46
2018-04-15T06:53:46.399Z,56.77
2018-04-15T06:56:15.914Z,56.87
2018-04-15T06:58:45.422Z,56.20
2018-04-15T07:01:14.922Z,55.85
2018-04-15T07:03:44.432Z,55.34
2018-04-15T07:06:13.936Z,55.08
2018-04-15T07:08:43.832Z,55.53
2018-04-15T07:11:13.602Z,55.64
2018-04-15T07:13:43.487Z,56.04
2018-04-15T07:16:12.984Z,56.85
2018-04-15T07:18:42.481Z,56.92
2018-04-15T07:21:12.013Z,56.34
2018-04-15T07:23:41.515Z,56.57
2018-04-15T07:26:11.017Z,56.55
2018-04-15T07:28:40.545Z,56.77
2018-04-15T07:31:10.435Z,57.65
2018-04-15T07:33:39.949Z,56.99
2018-04-15T07:36:09.419Z,53.33
2018-04-15T07:38:38.761Z,51.65
2018-04-15T07:41:08.033Z,50.46
2018-04-15T07:43:37.532Z,50.32
2018-04-15T07:46:06.123Z,49.19
2018-04-15T07:48:35.717Z,48.66
2018-04-15T07:51:05.214Z,48.21
2018-04-15T07:53:34.716Z,48.92
2018-04-15T07:56:04.237Z,49.75
2018-04-15T07:58:33.733Z,50.25
2018-04-15T08:01:03.221Z,50.04
2018-04-15T08:03:32.737Z,50.48
2018-04-15T08:06:02.223Z,50.97
2018-04-15T08:08:32.150Z,54.19
2018-04-15T08:11:01.665Z,57.01
2018-04-15T08:13:31.352Z,57.20
2018-04-15T08:16:01.251Z,57.42
2018-04-15T08:18:30.753Z,57.26
2018-04-15T08:21:00.258Z,57.17
2018-04-15T08:23:29.773Z,57.32
2018-04-15T08:25:59.445Z,56.90
2018-04-15T08:28:29.023Z,56.51
2018-04-15T08:30:58.535Z,56.08
2018-04-15T08:33:28.034Z,55.11
2018-04-15T08:35:57.525Z,54.21
2018-04-15T08:38:27.019Z,54.62
2018-04-15T08:40:56.933Z,54.96
2018-04-15T08:43:26.605Z,56.12
2018-04-15T08:45:56.131Z,55.66
2018-04-15T08:48:25.627Z,55.80
2018-04-15T08:50:55.120Z,56.67
2018-04-15T08:53:24.421Z,55.68
2018-04-15T08:55:53.927Z,55.35
2018-04-15T08:58:23.449Z,55.00
2018-04-15T09:00:52.977Z,54.17
2018-04-15T09:03:22.873Z,53.83
2018-04-15T09:05:52.387Z,53.45
2018-04-15T09:08:22.297Z,53.09
2018-04-15T09:10:51.808Z,52.30
2018-04-15T09:13:21.710Z,52.20
2018-04-15T09:15:51.245Z,52.76
2018-04-15T09:18:20.743Z,53.18
2018-04-15T09:20:50.671Z,52.93
2018-04-15T09:23:20.201Z,51.79
2018-04-15T09:25:49.880Z,52.01
2018-04-15T09:28:19.792Z,52.27
2018-04-15T09:30:54.911Z,51.57
2018-04-15T09:33:24.454Z,51.18
2018-04-15T09:35:53.949Z,50.89
2018-04-15T09:38:23.456Z,50.54
2018-04-15T09:40:52.990Z,49.95
2018-04-15T09:43:22.491Z,49.54
2018-04-15T09:45:52.073Z,50.10
2018-04-15T09:48:21.985Z,49.66
2018-04-15T09:50:51.488Z,49.04
2018-04-15T09:53:21.400Z,49.75
2018-04-15T09:55:51.313Z,49.47
2018-04-15T09:58:21.221Z,48.72
2018-04-15T10:00:50.889Z,48.69
2018-04-15T10:03:20.399Z,47.87
2018-04-15T10:05:49.903Z,47.03
2018-04-15T10:08:19.395Z,46.40
2018-04-15T10:10:48.977Z,46.90
2018-04-15T10:13:19.073Z,45.89
2018-04-15T10:15:48.977Z,46.02
2018-04-15T10:18:18.707Z,45.45
2018-04-15T10:20:48.615Z,44.95
2018-04-15T10:23:18.509Z,45.29
2018-04-15T10:25:47.763Z,45.50
2018-04-15T10:28:17.319Z,44.91
2018-04-15T10:30:46.626Z,43.39
2018-04-15T10:33:16.549Z,44.24
2018-04-15T10:35:46.433Z,45.50
2018-04-15T10:38:15.941Z,45.26
2018-04-15T10:40:45.449Z,43.79
2018-04-15T10:43:14.946Z,45.12
2018-04-15T10:45:44.129Z,43.91
2018-04-15T10:48:13.639Z,45.33
2018-04-15T10:50:43.147Z,44.41
2018-04-15T10:53:12.661Z,44.04
2018-04-15T10:55:42.157Z,44.50
2018-04-15T10:58:11.111Z,43.54
2018-04-15T11:00:41.015Z,42.66
2018-04-15T11:03:10.913Z,42.99
2018-04-15T11:05:40.422Z,41.12
2018-04-15T11:08:09.931Z,40.20
2018-04-15T11:10:39.386Z,42.29
2018-04-15T11:13:08.896Z,42.35
2018-04-15T11:15:38.420Z,41.68
2018-04-15T11:18:07.924Z,41.78
2018-04-15T11:20:37.440Z,43.02
2018-04-15T11:23:06.949Z,42.46
2018-04-15T11:25:36.486Z,41.85
2018-04-15T11:28:06.381Z,42.36
2018-04-15T11:30:35.893Z,42.36
2018-04-15T11:33:05.805Z,41.70
2018-04-15T11:35:35.713Z,41.35
2018-04-15T11:38:04.895Z,41.86
2018-04-15T11:40:34.431Z,41.59
2018-04-15T11:43:04.343Z,41.68
2018-04-15T11:45:33.846Z,41.08
2018-04-15T11:48:03.759Z,39.58
2018-04-15T11:50:33.289Z,40.81
2018-04-15T11:53:02.811Z,40.90
2018-04-15T11:55:32.301Z,40.46
2018-04-15T11:58:01.823Z,40.51
2018-04-15T12:00:31.315Z,40.43
2018-04-15T12:03:00.844Z,40.00
2018-04-15T12:05:30.957Z,39.82
2018-04-15T12:08:00.491Z,38.82
2018-04-15T12:10:30.027Z,39.13
2018-04-15T12:13:56.868Z,38.60
2018-04-15T12:16:26.386Z,37.47
2018-04-15T12:18:55.900Z,37.51
2018-04-15T12:21:25.824Z,36.78
2018-04-15T12:23:55.759Z,35.77
2018-04-15T12:26:25.278Z,36.43
2018-04-15T12:28:54.793Z,36.48
2018-04-15T12:31:24.386Z,34.64
2018-04-15T12:33:53.892Z,34.01
2018-04-15T12:43:35.802Z,37.34
2018-04-15T12:46:05.703Z,38.90
2018-04-15T12:48:35.239Z,39.30
2018-04-15T12:51:04.754Z,39.92
2018-04-15T12:53:34.332Z,40.00
2018-04-15T13:02:51.851Z,38.27
2018-04-15T13:05:21.423Z,37.46
2018-04-15T13:07:51.473Z,38.45
2018-04-15T13:10:20.995Z,37.16
2018-04-15T13:12:50.523Z,37.69
2018-04-15T13:15:20.029Z,37.04
2018-04-15T13:17:49.555Z,36.93
2018-04-15T13:20:19.490Z,37.72
2018-04-15T13:22:49.578Z,37.05
2018-04-15T13:25:19.472Z,35.71
2018-04-15T13:27:49.638Z,39.47
2018-04-15T13:30:19.547Z,39.77
2018-04-15T13:32:49.463Z,39.86
2018-04-15T13:35:18.744Z,38.44
2018-04-15T13:37:49.075Z,39.46
2018-04-15T13:40:18.641Z,40.57
2018-04-15T13:42:48.290Z,40.17
2018-04-15T13:45:17.788Z,39.94
2018-04-15T13:47:47.293Z,41.41
2018-04-15T13:50:16.787Z,41.44
2018-04-15T13:52:46.307Z,40.57
2018-04-15T13:55:15.813Z,40.25
2018-04-15T13:57:45.327Z,39.96
2018-04-15T14:00:15.042Z,39.34
2018-04-15T14:02:44.819Z,39.69
2018-04-15T14:05:14.317Z,40.02
2018-04-15T14:07:43.845Z,40.23
2018-04-15T14:10:13.343Z,41.59
2018-04-15T14:12:42.855Z,41.75
2018-04-15T14:15:12.131Z,42.00
2018-04-15T14:17:41.593Z,42.78
2018-04-15T14:20:11.491Z,42.16
2018-04-15T14:22:40.755Z,40.69
2018-04-15T14:25:10.280Z,41.25
2018-04-15T14:27:39.961Z,39.47
2018-04-15T14:30:09.545Z,39.75
2018-04-15T14:32:39.044Z,39.19
2018-04-15T14:35:08.550Z,39.02
2018-04-15T14:37:38.052Z,39.08
2018-04-15T14:40:07.985Z,39.01
2018-04-15T14:42:37.494Z,40.65
2018-04-15T14:45:06.992Z,39.75
2018-04-15T14:54:23.822Z,40.87
2018-04-15T14:56:53.724Z,39.95
2018-04-15T14:59:23.419Z,41.60
2018-04-15T15:01:52.964Z,39.02
2018-04-15T15:04:22.649Z,38.58
2018-04-15T15:06:52.190Z,38.35
2018-04-15T15:09:21.714Z,39.50
2018-04-15T15:11:51.223Z,41.15
2018-04-15T15:14:20.739Z,40.80
2018-04-15T15:16:50.262Z,40.71
2018-04-15T15:19:19.791Z,40.82
2018-04-15T15:21:49.489Z,40.46
2018-04-15T15:24:18.989Z,41.05
2018-04-15T15:26:48.681Z,40.26
2018-04-15T15:29:18.207Z,39.75
2018-04-15T15:31:47.484Z,40.58
2018-04-15T15:34:16.993Z,40.09
2018-04-15T15:36:46.511Z,40.07
2018-04-15T15:39:16.019Z,40.04
2018-04-15T15:41:45.559Z,40.50
2018-04-15T15:44:15.453Z,39.79
2018-04-15T15:46:45.153Z,39.60
2018-04-15T15:49:14.656Z,38.91
2018-04-15T15:51:44.208Z,38.69
2018-04-15T15:54:13.483Z,38.36
2018-04-15T15:56:43.019Z,37.27
2018-04-15T15:59:12.300Z,38.04
2018-04-15T16:01:42.201Z,38.38
2018-04-15T16:04:11.702Z,38.06
2018-04-15T16:06:41.220Z,39.18
2018-04-15T16:09:11.117Z,38.96
2018-04-15T16:11:40.606Z,38.64
2018-04-15T16:14:10.111Z,37.55
2018-04-15T16:16:39.616Z,37.19
2018-04-15T16:19:09.124Z,36.89
2018-04-15T16:21:39.259Z,37.94
2018-04-15T16:24:08.933Z,36.93
2018-04-15T16:26:39.031Z,37.24
2018-04-15T16:29:08.549Z,37.86
2018-04-15T16:31:38.062Z,36.52
2018-04-15T16:34:07.570Z,36.68
2018-04-15T16:36:37.089Z,37.10
2018-04-15T16:39:05.688Z,37.74
2018-04-15T16:41:35.319Z,37.78
2018-04-15T16:44:05.019Z,38.93
2018-04-15T16:46:34.537Z,38.34
2018-04-15T16:49:04.441Z,39.04
2018-04-15T16:51:33.963Z,39.07
2018-04-15T16:54:03.879Z,41.26
2018-04-15T16:56:33.588Z,39.65
2018-04-15T16:59:03.475Z,41.75
2018-04-15T17:01:32.993Z,39.12
2018-04-15T17:04:02.499Z,40.06
2018-04-15T17:06:32.004Z,40.42
2018-04-15T17:09:01.520Z,38.97
2018-04-15T17:11:31.444Z,38.71
2018-04-15T17:14:01.898Z,39.08
2018-04-15T17:16:31.984Z,39.14
2018-04-15T17:19:01.905Z,41.49
2018-04-15T17:21:31.802Z,41.17
2018-04-15T17:24:01.331Z,41.57
2018-04-15T17:26:31.253Z,40.42
2018-04-15T17:29:00.788Z,41.29
2018-04-15T17:31:30.352Z,42.20
2018-04-15T17:34:00.260Z,41.72
2018-04-15T17:36:29.776Z,42.95
2018-04-15T17:38:59.694Z,43.79
2018-04-15T17:41:29.750Z,43.38
2018-04-15T17:43:59.284Z,44.18
2018-04-15T17:46:28.832Z,43.69
2018-04-15T17:48:58.351Z,43.74
2018-04-15T17:51:27.856Z,44.55
2018-04-15T17:53:57.360Z,44.96
2018-04-15T17:56:26.887Z,45.05
2018-04-15T17:58:56.433Z,44.42
2018-04-15T18:01:26.158Z,45.79
2018-04-15T18:03:56.084Z,45.79
2018-04-15T18:06:25.990Z,46.43
2018-04-15T18:08:55.995Z,47.34
2018-04-15T18:11:25.940Z,47.88
2018-04-15T18:13:55.474Z,48.16
2018-04-15T18:16:25.192Z,48.78
2018-04-15T18:22:45.903Z,49.61
2018-04-15T18:25:31.736Z,50.09
2018-04-15T18:28:11.943Z,51.06
2018-04-15T18:30:43.117Z,50.81
2018-04-15T18:33:12.854Z,50.85
2018-04-15T18:35:42.364Z,50.55
2018-04-15T18:38:12.052Z,50.27
2018-04-15T18:40:41.547Z,49.06
2018-04-15T18:43:11.056Z,49.98
2018-04-15T18:45:40.595Z,50.50
2018-04-15T18:48:10.098Z,51.17
2018-04-15T18:50:39.813Z,51.45
2018-04-15T18:53:09.552Z,51.48
2018-04-15T18:55:38.843Z,51.27
2018-04-15T18:58:08.737Z,50.86
2018-04-15T19:00:38.251Z,49.93
2018-04-15T19:03:08.138Z,51.02
2018-04-15T19:05:42.642Z,50.97
2018-04-15T19:08:12.692Z,51.67
2018-04-15T19:10:42.207Z,52.14
2018-04-15T19:13:12.105Z,51.88
2018-04-15T19:15:41.629Z,51.48
2018-04-15T19:18:11.592Z,52.04
2018-04-15T19:20:41.660Z,51.36
2018-04-15T19:23:11.626Z,51.99
2018-04-15T19:25:41.152Z,52.70
2018-04-15T19:28:10.670Z,52.76
2018-04-15T19:30:40.428Z,52.56
2018-04-15T19:33:09.946Z,52.83
2018-04-15T19:35:39.491Z,53.45
2018-04-15T19:38:09.009Z,54.22
2018-04-15T19:40:38.520Z,54.06
2018-04-15T19:43:07.853Z,53.95
2018-04-15T19:45:37.161Z,54.19
2018-04-15T19:48:06.478Z,54.28
2018-04-15T19:50:35.781Z,54.43
2018-04-15T19:53:05.330Z,54.26
2018-04-15T19:55:34.836Z,54.40
2018-04-15T19:58:04.357Z,54.64
2018-04-15T20:00:34.276Z,54.43
2018-04-15T20:03:04.183Z,54.43
2018-04-15T20:05:34.084Z,53.96
2018-04-15T20:08:03.590Z,54.38
2018-04-15T20:10:33.084Z,53.26
2018-04-15T20:13:02.791Z,53.54
2018-04-15T20:15:32.299Z,53.47
2018-04-15T20:18:01.818Z,53.39
2018-04-15T20:20:31.110Z,53.81
2018-04-15T20:23:00.628Z,53.82
2018-04-15T20:25:30.130Z,53.82
2018-04-15T20:27:59.629Z,53.98
2018-04-15T20:30:29.170Z,54.25
2018-04-15T20:32:59.104Z,54.07
2018-04-15T20:35:28.627Z,54.11
2018-04-15T20:37:58.137Z,54.42
2018-04-15T20:40:27.440Z,54.31
2018-04-15T20:42:56.967Z,53.88
2018-04-15T20:45:26.465Z,53.87
2018-04-15T20:47:55.996Z,53.84
2018-04-15T20:50:25.520Z,53.88
2018-04-15T20:52:55.421Z,53.47
2018-04-15T20:55:25.387Z,53.08
2018-04-15T20:57:55.100Z,53.38
2018-04-15T21:00:24.614Z,52.96
2018-04-15T21:02:54.112Z,53.25
2018-04-15T21:05:23.468Z,53.73
2018-04-15T21:07:53.402Z,53.50
2018-04-15T21:10:22.732Z,53.43
2018-04-15T21:12:52.252Z,52.95
2018-04-15T21:15:21.798Z,52.76
2018-04-15T21:17:52.004Z,52.71
2018-04-15T21:20:21.922Z,53.04
2018-04-15T21:22:51.638Z,52.96
2018-04-15T21:25:21.571Z,52.97
2018-04-15T21:27:51.477Z,52.80
2018-04-15T21:30:21.399Z,52.58
2018-04-15T21:32:51.076Z,52.69
2018-04-15T21:35:20.628Z,53.00
2018-04-15T21:37:50.132Z,53.30
2018-04-15T21:40:19.402Z,53.42
2018-04-15T21:42:49.305Z,53.71
2018-04-15T21:45:18.846Z,54.35
2018-04-15T21:47:48.157Z,54.22
2018-04-15T21:50:17.672Z,54.49
2018-04-15T21:52:47.181Z,55.16
2018-04-15T21:55:16.687Z,55.43
2018-04-15T21:57:46.263Z,55.89
2018-04-15T22:00:15.929Z,55.82
2018-04-15T22:02:45.453Z,55.63
2018-04-15T22:05:14.744Z,55.44
2018-04-15T22:07:44.253Z,55.43
2018-04-15T22:10:13.984Z,55.26
2018-04-15T22:12:43.899Z,55.36
2018-04-15T22:15:13.795Z,55.57
2018-04-15T22:17:43.309Z,55.51
2018-04-15T22:20:12.822Z,55.87
2018-04-15T22:22:42.713Z,56.13
2018-04-15T22:25:12.229Z,56.38
2018-04-15T22:27:41.505Z,56.73
2018-04-15T22:30:11.004Z,57.56
2018-04-15T22:32:40.505Z,58.30
2018-04-15T22:35:10.008Z,59.61
2018-04-15T22:37:39.520Z,60.61
2018-04-15T22:40:09.014Z,61.21
2018-04-15T22:42:38.526Z,61.91
2018-04-15T22:45:08.044Z,62.52
2018-04-15T22:47:37.324Z,62.83
2018-04-15T22:50:12.142Z,62.98
2018-04-15T22:52:41.658Z,63.09
2018-04-15T22:55:11.164Z,62.65
2018-04-15T22:57:40.676Z,63.12
2018-04-15T23:00:09.852Z,63.49
2018-04-15T23:02:39.366Z,63.45
2018-04-15T23:05:08.878Z,63.45
2018-04-15T23:07:38.391Z,63.08
2018-04-15T23:10:07.911Z,63.27
2018-04-15T23:12:37.183Z,63.14
2018-04-15T23:15:06.697Z,63.07
2018-04-15T23:17:36.221Z,63.46
2018-04-15T23:20:05.175Z,63.73
2018-04-15T23:22:35.129Z,63.58
2018-04-15T23:25:04.665Z,63.40
2018-04-15T23:27:34.199Z,63.05
2018-04-15T23:30:04.119Z,63.19
2018-04-15T23:32:33.623Z,63.60
2018-04-15T23:35:03.519Z,63.36
2018-04-15T23:37:33.024Z,63.68
2018-04-15T23:40:02.364Z,64.18
2018-04-15T23:42:31.877Z,64.17
2018-04-15T23:45:01.394Z,64.00
2018-04-15T23:47:31.107Z,64.37
2018-04-15T23:50:00.613Z,64.90
2018-04-15T23:52:30.107Z,65.61
2018-04-15T23:54:59.604Z,66.19
2018-04-15T23:57:28.875Z,66.91
2018-04-15T23:59:58.539Z,66.96
